This is the latest recevied weather packets stored in our database for station/object AI9T. If no packets are shown the sender has not sent any weather packets the latest 10 day(s).
| Time | Temp. | Humidity | Pressure | Rain* | Wind** | Luminosity | Snow |
|---|---|---|---|---|---|---|---|
| 1778355004 | 22.22° C | 64% | 1007 hPa | 0 mm | - | - | - |
| 1778351705 | 20.56° C | 70% | 1007.3 hPa | 0 mm | - | - | - |
| 1778351405 | 20.56° C | 72% | 1007.3 hPa | 0 mm | - | - | - |
| 1778348704 | 19.44° C | 75% | 1007.5 hPa | 0 mm | - | - | - |
| 1778348104 | 19.44° C | 76% | 1007.5 hPa | 0 mm | - | - | - |
| 1778347204 | 18.89° C | 76% | 1007.8 hPa | 0 mm | - | - | - |
| 1778346304 | 18.89° C | 77% | 1008 hPa | 0 mm | - | - | - |
| 1778342704 | 17.22° C | 83% | 1008.1 hPa | 0 mm | - | - | - |
| 1778340904 | 16.11° C | 87% | 1007.9 hPa | 0 mm | - | - | - |
| 1778339704 | 15.56° C | 87% | 1007.8 hPa | 0 mm | - | - | - |
| 1778339404 | 16.11° C | 90% | 1007.7 hPa | 0 mm | - | - | - |
| 1778337004 | 14.44° C | 96% | 1007.7 hPa | 0 mm | - | - | - |
| 1778335204 | 13.89° C | 97% | 1007.8 hPa | 0 mm | - | - | - |
| 1778334903 | 13.89° C | 97% | 1007.8 hPa | 0 mm | - | - | - |
| 1778334304 | 13.89° C | 97% | 1007.8 hPa | 0 mm | - | - | - |
| 1778332204 | 12.78° C | 97% | 1007.7 hPa | 0 mm | - | - | - |
| 1778330404 | 12.22° C | 97% | 1008 hPa | 0 mm | - | - | - |
| 1778329204 | 12.22° C | 97% | 1008 hPa | 0 mm | - | - | - |
| 1778328004 | 11.67° C | 97% | 1007.8 hPa | 0 mm | - | - | - |
| 1778325604 | 11.67° C | 97% | 1007.3 hPa | 0 mm | - | - | - |
| 1778323504 | 11.67° C | 97% | 1006.9 hPa | 0 mm | - | - | - |
| 1778321703 | 11.11° C | 97% | 1006.8 hPa | 0 mm | - | - | - |
| 1778320504 | 11.11° C | 97% | 1006.6 hPa | 0 mm | - | - | - |
| 1778318704 | 10.56° C | 97% | 1006.4 hPa | 0.25 mm | - | - | - |
| 1778316903 | 11.67° C | 97% | 1006.2 hPa | 0.25 mm | - | - | - |
* Rain latest hour (hover to see other rain measurements)
** Current wind speed in m/s (hover to see current wind gust speed)